メインページ
METAR-TAF:

METAR-TAF

空港 :

ポートモレスビー・ジャクソン国際空港

ポートモレスビー, パプアニューギニア

緯度: 09-26S, 経度: 147-13E, 海抜: 38m

現時点の気象観測

当レポートは2時間32分前の12:00(UTC)に作成
気温 26°C
湿度 89%
気圧 1009 hPa
視程10km以上
高度2000ftの雲はほとんどない

METAR: AYPY 251200Z 12015/20KT 9999 FEW020 26/24 Q1009

時間: 00:32 (14:32 UTC)

予報

当レポートは13時間32分前の01:00(UTC)に作成
予報は25日の 06時(UTC)から 26日の 06時(UTC)まで有効
南東の風 12kt
視程10km以上
高度1800ftの千切れ雲あり
弱いにわか雨
25日の 1000時(UTC)から
南/南東の風 6kt
視程10km以上
高度4000ftの雲は散在している
高度14000ftの千切れ雲あり

TAF: AYPY 250100Z 2506/2606 14012KT 9999 -SHRA BKN018 FM251000 16006KT 9999 SCT040 BKN140

4,000以上の空港の気象観測と天気予報(METAR報とTAF報)

利用可能な観測所は地図上に黄色い丸と赤い丸で示す。

丸の上にカーソルを重ねると観測所名を参照できる。

次にクリックすると気象観測と天気予報を参照できる。

マップの切り替え:黒色「×」印の緑ボタンをクリックして拡大、「-」印の緑ボタンをクリックして縮小、緑色の三角印をクリックして隣りの地図に切り替え


METAR-TAF: